createdAt,value
2023-01-27T00:01:23.664Z,98295.94
2023-01-27T00:03:54.683Z,98291.56
2023-01-27T00:06:25.107Z,98291.28
2023-01-27T00:08:55.367Z,98291.63
2023-01-27T00:11:37.944Z,98295.84
2023-01-27T00:14:10.688Z,98286.84
2023-01-27T00:16:40.811Z,98277.88
2023-01-27T00:19:11.191Z,98284.09
2023-01-27T00:21:53.671Z,98280.28
2023-01-27T00:24:36.481Z,98272.03
2023-01-27T00:27:09.004Z,98276.81
2023-01-27T00:29:44.450Z,98283.38
2023-01-27T00:32:26.938Z,98283.38
2023-01-27T00:34:56.936Z,98284.56
2023-01-27T00:37:27.135Z,98279.78
2023-01-27T00:39:57.128Z,98276.38
2023-01-27T00:42:27.339Z,98278.66
2023-01-27T00:45:12.476Z,98286.09
2023-01-27T00:47:42.571Z,98281.00
2023-01-27T00:50:14.271Z,98281.59
2023-01-27T00:52:44.545Z,98286.28
2023-01-27T00:55:16.063Z,98287.50
2023-01-27T00:57:47.113Z,98287.00
2023-01-27T01:00:21.186Z,98279.78
2023-01-27T01:02:51.362Z,98281.16
2023-01-27T01:05:21.497Z,98293.38
2023-01-27T01:07:51.664Z,98290.38
2023-01-27T01:10:22.034Z,98282.97
2023-01-27T01:12:54.838Z,98283.59
2023-01-27T01:15:28.324Z,98286.38
2023-01-27T01:17:58.723Z,98292.22
2023-01-27T01:20:28.884Z,98298.44
2023-01-27T01:22:59.907Z,98289.34
2023-01-27T01:25:29.936Z,98297.56
2023-01-27T01:28:00.307Z,98297.78
2023-01-27T01:30:33.557Z,98304.53
2023-01-27T01:33:03.642Z,98300.34
2023-01-27T01:35:34.028Z,98300.97
2023-01-27T01:38:04.121Z,98293.00
2023-01-27T01:40:34.372Z,98301.56
2023-01-27T01:43:07.006Z,98293.84
2023-01-27T01:45:56.181Z,98289.84
2023-01-27T01:48:41.641Z,98284.38
2023-01-27T01:51:16.342Z,98282.44
2023-01-27T01:53:55.772Z,98289.50
2023-01-27T01:56:35.110Z,98283.38
2023-01-27T01:59:13.040Z,98280.00
2023-01-27T02:01:47.180Z,98278.28
2023-01-27T02:04:24.029Z,98274.75
2023-01-27T02:07:01.873Z,98273.69
2023-01-27T02:09:32.400Z,98264.28
2023-01-27T02:12:04.043Z,98268.59
2023-01-27T02:14:35.332Z,98268.16
2023-01-27T02:17:09.097Z,98267.41
2023-01-27T02:19:55.766Z,98263.38
2023-01-27T02:22:39.416Z,98266.38
2023-01-27T02:25:21.183Z,98263.59
2023-01-27T02:27:56.125Z,98260.97
2023-01-27T02:30:26.618Z,98254.03
2023-01-27T02:32:56.911Z,98265.19
2023-01-27T02:35:37.016Z,98257.25
2023-01-27T02:38:10.667Z,98257.59
2023-01-27T02:40:42.089Z,98257.88
2023-01-27T02:43:14.969Z,98265.44
2023-01-27T02:45:45.351Z,98261.25
2023-01-27T02:48:15.860Z,98260.97
2023-01-27T02:50:45.892Z,98267.16
2023-01-27T02:53:15.987Z,98269.75
2023-01-27T02:55:46.351Z,98262.19
2023-01-27T02:58:19.602Z,98265.75
2023-01-27T03:00:52.930Z,98254.63
2023-01-27T03:03:23.172Z,98261.41
2023-01-27T03:05:54.855Z,98247.47
2023-01-27T03:08:25.876Z,98252.94
2023-01-27T03:10:57.671Z,98248.34
2023-01-27T03:13:30.918Z,98252.81
2023-01-27T03:16:15.225Z,98247.63
2023-01-27T03:18:47.459Z,98254.91
2023-01-27T03:21:18.868Z,98255.69
2023-01-27T03:23:49.754Z,98257.19
2023-01-27T03:26:24.783Z,98264.72
2023-01-27T03:29:13.960Z,98272.84
2023-01-27T03:31:46.970Z,98264.38
2023-01-27T03:34:17.473Z,98274.31
2023-01-27T03:37:03.841Z,98269.72
2023-01-27T03:39:46.963Z,98271.00
2023-01-27T03:42:30.199Z,98270.47
2023-01-27T03:45:15.723Z,98266.97
2023-01-27T03:47:46.042Z,98266.22
2023-01-27T03:50:19.465Z,98263.63
2023-01-27T03:53:03.397Z,98261.25
2023-01-27T03:55:35.562Z,98253.25
2023-01-27T03:58:15.222Z,98266.41
2023-01-27T04:00:49.690Z,98273.94
2023-01-27T04:03:32.494Z,98271.19
2023-01-27T04:06:20.793Z,98265.75
2023-01-27T04:08:51.230Z,98271.00
2023-01-27T04:11:33.912Z,98274.41
2023-01-27T04:14:05.384Z,98263.97
2023-01-27T04:16:39.654Z,98261.47
2023-01-27T04:19:12.970Z,98267.53
2023-01-27T04:21:44.128Z,98267.72
2023-01-27T04:24:24.470Z,98271.81
2023-01-27T04:26:58.785Z,98264.25
2023-01-27T04:29:31.825Z,98272.72
2023-01-27T04:32:06.646Z,98274.22
2023-01-27T04:34:36.858Z,98271.03
2023-01-27T04:37:08.320Z,98271.44
2023-01-27T04:39:39.010Z,98268.25
2023-01-27T04:42:09.269Z,98270.03
2023-01-27T04:44:39.485Z,98263.13
2023-01-27T04:47:12.141Z,98266.34
2023-01-27T04:49:42.578Z,98274.66
2023-01-27T04:52:12.888Z,98276.03
2023-01-27T04:54:42.895Z,98280.81
2023-01-27T04:57:13.322Z,98273.44
2023-01-27T04:59:43.538Z,98273.09
2023-01-27T05:02:16.232Z,98282.16
2023-01-27T05:04:46.384Z,98284.28
2023-01-27T05:07:16.548Z,98279.94
2023-01-27T05:09:46.924Z,98295.13
2023-01-27T05:12:17.109Z,98294.13
2023-01-27T05:14:47.265Z,98299.72
2023-01-27T05:17:20.280Z,98295.00
2023-01-27T05:19:50.497Z,98294.31
2023-01-27T05:22:20.677Z,98294.41
2023-01-27T05:24:51.053Z,98288.72
2023-01-27T05:27:21.885Z,98292.13
2023-01-27T05:29:52.728Z,98293.28
2023-01-27T05:32:25.741Z,98296.13
2023-01-27T05:34:55.991Z,98300.31
2023-01-27T05:37:26.215Z,98294.91
2023-01-27T05:39:56.336Z,98296.44
2023-01-27T05:42:26.694Z,98297.84
2023-01-27T05:44:57.051Z,98291.72
2023-01-27T05:47:30.007Z,98306.53
2023-01-27T05:50:00.161Z,98308.75
2023-01-27T05:52:30.350Z,98314.31
2023-01-27T05:55:01.110Z,98307.00
2023-01-27T05:57:31.304Z,98305.31
2023-01-27T06:00:01.779Z,98305.03
2023-01-27T06:02:35.283Z,98309.31
2023-01-27T06:05:05.556Z,98305.03
2023-01-27T06:07:35.967Z,98309.03
2023-01-27T06:10:06.618Z,98312.09
2023-01-27T06:12:36.829Z,98314.13
2023-01-27T06:15:07.939Z,98316.59
2023-01-27T06:17:40.785Z,98314.75
2023-01-27T06:20:13.542Z,98316.75
2023-01-27T06:22:43.877Z,98308.84
2023-01-27T06:25:14.404Z,98309.53
2023-01-27T06:27:45.074Z,98305.69
2023-01-27T06:30:16.502Z,98311.03
2023-01-27T06:32:49.265Z,98307.13
2023-01-27T06:35:19.821Z,98312.53
2023-01-27T06:37:50.170Z,98318.72
2023-01-27T06:40:21.524Z,98318.91
2023-01-27T06:42:51.925Z,98327.88
2023-01-27T06:45:22.348Z,98334.09
2023-01-27T06:48:02.451Z,98332.50
2023-01-27T06:50:33.526Z,98333.66
2023-01-27T06:53:06.830Z,98338.56
2023-01-27T06:55:41.825Z,98352.63
2023-01-27T06:58:14.044Z,98358.44
2023-01-27T07:00:45.614Z,98358.41
2023-01-27T07:03:18.699Z,98363.41
2023-01-27T07:05:49.232Z,98369.41
2023-01-27T07:08:19.817Z,98365.97
2023-01-27T07:10:50.915Z,98365.59
2023-01-27T07:13:21.602Z,98377.88
2023-01-27T07:15:58.418Z,98378.97
2023-01-27T07:18:31.423Z,98383.75
2023-01-27T07:21:01.769Z,98378.19
2023-01-27T07:23:31.870Z,98376.81
2023-01-27T07:26:12.547Z,98375.19
2023-01-27T07:28:49.700Z,98373.41
2023-01-27T07:31:20.123Z,98383.84
2023-01-27T07:33:53.350Z,98382.50
2023-01-27T07:36:23.714Z,98389.66
2023-01-27T07:38:55.110Z,98388.84
2023-01-27T07:41:26.413Z,98394.78
2023-01-27T07:43:57.201Z,98404.72
2023-01-27T07:46:30.110Z,98396.53
2023-01-27T07:49:03.321Z,98407.88
2023-01-27T07:51:33.699Z,98415.56
2023-01-27T07:54:03.862Z,98394.66
2023-01-27T07:56:36.466Z,98393.09
2023-01-27T07:59:07.865Z,98407.94
2023-01-27T08:01:38.005Z,98414.50
2023-01-27T08:04:10.953Z,98416.22
2023-01-27T08:06:42.126Z,98416.28
2023-01-27T08:09:12.375Z,98417.22
2023-01-27T08:11:42.541Z,98406.47
2023-01-27T08:14:12.940Z,98406.53
2023-01-27T08:16:43.487Z,98416.38
2023-01-27T08:19:16.700Z,98405.72
2023-01-27T08:21:47.238Z,98415.28
2023-01-27T08:24:20.155Z,98416.78
2023-01-27T08:26:50.625Z,98425.16
2023-01-27T08:29:21.165Z,98425.09
2023-01-27T08:31:51.861Z,98426.19
2023-01-27T08:34:25.071Z,98428.59
2023-01-27T08:36:55.581Z,98434.78
2023-01-27T08:39:25.876Z,98436.50
2023-01-27T08:41:56.310Z,98434.28
2023-01-27T08:44:28.445Z,98436.84
2023-01-27T08:46:58.839Z,98430.06
2023-01-27T08:49:31.755Z,98434.66
2023-01-27T08:52:02.128Z,98438.63
2023-01-27T08:54:32.424Z,98450.44
2023-01-27T08:57:03.337Z,98440.63
2023-01-27T08:59:33.861Z,98443.78
2023-01-27T09:02:03.975Z,98450.28
2023-01-27T09:04:41.549Z,98450.66
2023-01-27T09:07:11.618Z,98439.59
2023-01-27T09:09:41.822Z,98440.88
2023-01-27T09:12:12.486Z,98449.66
2023-01-27T09:14:43.383Z,98446.06
2023-01-27T09:17:17.233Z,98442.44
2023-01-27T09:19:50.251Z,98441.53
2023-01-27T09:22:20.760Z,98444.19
2023-01-27T09:24:51.292Z,98449.28
2023-01-27T09:27:37.080Z,98453.22
2023-01-27T09:30:11.537Z,98432.66
2023-01-27T09:32:42.559Z,98448.19
2023-01-27T09:35:16.227Z,98440.84
2023-01-27T09:37:52.683Z,98444.22
2023-01-27T09:40:35.335Z,98448.88
2023-01-27T09:43:50.537Z,98436.13
2023-01-27T09:46:54.997Z,98453.41
2023-01-27T09:49:49.677Z,98454.13
2023-01-27T09:53:00.746Z,98445.13
2023-01-27T09:55:43.187Z,98456.88
2023-01-27T09:58:34.530Z,98460.44
2023-01-27T10:01:19.918Z,98452.03
2023-01-27T10:04:15.903Z,98451.09
2023-01-27T10:07:30.356Z,98453.16
2023-01-27T10:10:29.641Z,98454.16
2023-01-27T10:13:20.873Z,98452.50
2023-01-27T10:16:14.145Z,98456.19
2023-01-27T10:19:11.978Z,98451.91
2023-01-27T10:21:59.604Z,98446.22
2023-01-27T10:24:50.080Z,98454.72
2023-01-27T10:27:26.654Z,98453.50
2023-01-27T10:30:04.317Z,98457.13
2023-01-27T10:32:48.145Z,98464.34
2023-01-27T10:35:23.090Z,98458.09
2023-01-27T10:38:14.366Z,98464.00
2023-01-27T10:40:56.540Z,98454.56
2023-01-27T10:43:41.600Z,98470.06
2023-01-27T10:46:30.513Z,98462.66
2023-01-27T10:49:09.714Z,98473.00
2023-01-27T10:51:48.395Z,98473.25
2023-01-27T10:54:29.694Z,98466.22
2023-01-27T10:57:07.649Z,98468.75
2023-01-27T11:00:18.036Z,98464.19
2023-01-27T11:02:52.801Z,98467.94
2023-01-27T11:05:32.968Z,98456.06
2023-01-27T11:08:14.306Z,98454.75
2023-01-27T11:11:03.431Z,98455.53
2023-01-27T11:13:35.571Z,98452.69
2023-01-27T11:16:16.556Z,98464.63
2023-01-27T11:18:48.146Z,98453.59
2023-01-27T11:21:24.693Z,98455.63
2023-01-27T11:24:00.562Z,98456.88
2023-01-27T11:26:41.226Z,98452.47
2023-01-27T11:29:29.905Z,98448.00
2023-01-27T11:32:11.454Z,98447.69
2023-01-27T11:34:54.097Z,98444.50
2023-01-27T11:37:32.502Z,98440.84
2023-01-27T11:40:03.406Z,98431.16
2023-01-27T11:42:37.928Z,98429.22
2023-01-27T11:45:10.015Z,98434.69
2023-01-27T11:47:46.270Z,98441.41
2023-01-27T11:50:21.054Z,98441.50
2023-01-27T11:52:57.191Z,98431.97
2023-01-27T11:55:36.823Z,98435.81
2023-01-27T11:58:22.402Z,98434.38
2023-01-27T12:00:59.410Z,98422.63
2023-01-27T12:03:55.413Z,98435.72
2023-01-27T12:06:41.117Z,98423.09
2023-01-27T12:09:34.382Z,98428.53
2023-01-27T12:12:25.535Z,98413.97
2023-01-27T12:14:58.698Z,98422.16
2023-01-27T12:17:37.011Z,98415.69
2023-01-27T12:20:30.029Z,98415.13
2023-01-27T12:23:05.572Z,98409.50
2023-01-27T12:25:50.686Z,98415.34
2023-01-27T12:28:32.944Z,98412.16
2023-01-27T12:31:11.716Z,98418.50
2023-01-27T12:33:48.351Z,98422.16
2023-01-27T12:36:25.423Z,98419.91
2023-01-27T12:39:00.430Z,98422.50
2023-01-27T12:41:34.087Z,98414.66
2023-01-27T12:44:22.549Z,98413.06
2023-01-27T12:47:05.192Z,98402.47
2023-01-27T12:49:40.688Z,98411.22
2023-01-27T12:52:23.103Z,98402.59
2023-01-27T12:54:54.528Z,98398.00
2023-01-27T12:57:29.715Z,98393.22
2023-01-27T13:00:04.117Z,98393.81
2023-01-27T13:02:36.905Z,98389.91
2023-01-27T13:05:13.246Z,98403.03
2023-01-27T13:07:50.844Z,98399.00
2023-01-27T13:10:27.906Z,98391.81
2023-01-27T13:13:01.336Z,98401.31
2023-01-27T13:15:35.245Z,98399.28
2023-01-27T13:18:22.885Z,98396.16
2023-01-27T13:20:59.901Z,98396.53
2023-01-27T13:23:40.731Z,98390.72
2023-01-27T13:26:20.747Z,98386.84
2023-01-27T13:28:58.406Z,98395.06
2023-01-27T13:31:47.292Z,98402.34
2023-01-27T13:34:29.856Z,98411.34
2023-01-27T13:37:11.062Z,98416.81
2023-01-27T13:40:06.416Z,98406.59
2023-01-27T13:42:46.130Z,98416.38
2023-01-27T13:45:21.939Z,98408.94
2023-01-27T13:48:00.281Z,98411.22
2023-01-27T13:50:38.281Z,98422.16
2023-01-27T13:53:14.420Z,98421.72
2023-01-27T13:56:04.724Z,98429.47
2023-01-27T13:58:53.973Z,98432.53
2023-01-27T14:01:31.799Z,98441.53
2023-01-27T14:04:33.186Z,98442.44
2023-01-27T14:07:22.106Z,98445.59
2023-01-27T14:10:14.410Z,98448.78
2023-01-27T14:13:09.341Z,98445.81
2023-01-27T14:15:54.725Z,98452.41
2023-01-27T14:18:29.719Z,98451.47
2023-01-27T14:21:31.162Z,98448.88
2023-01-27T14:24:27.112Z,98443.97
2023-01-27T14:27:10.010Z,98444.22
2023-01-27T14:29:54.947Z,98442.28
2023-01-27T14:32:40.984Z,98440.22
2023-01-27T14:35:37.230Z,98447.13
2023-01-27T14:38:19.191Z,98459.25
2023-01-27T14:41:14.850Z,98456.69
2023-01-27T14:43:56.786Z,98448.50
2023-01-27T14:46:58.991Z,98454.53
2023-01-27T14:49:54.538Z,98456.41
2023-01-27T14:52:41.954Z,98463.28
2023-01-27T14:55:34.236Z,98461.00
2023-01-27T14:58:43.871Z,98458.31
2023-01-27T15:01:36.822Z,98459.88
2023-01-27T15:04:36.047Z,98461.97
2023-01-27T15:07:19.528Z,98454.47
2023-01-27T15:10:26.148Z,98446.28
2023-01-27T15:13:46.790Z,98449.16
2023-01-27T15:16:59.636Z,98454.94
2023-01-27T15:20:07.530Z,98458.78
2023-01-27T15:22:59.598Z,98456.38
2023-01-27T15:25:37.338Z,98460.69
2023-01-27T15:28:15.457Z,98451.59
2023-01-27T15:31:23.098Z,98452.13
2023-01-27T15:34:00.691Z,98449.97
2023-01-27T15:36:40.624Z,98450.88
2023-01-27T15:39:35.572Z,98450.75
2023-01-27T15:42:15.429Z,98456.16
2023-01-27T15:45:03.306Z,98465.59
2023-01-27T15:47:37.344Z,98463.97
2023-01-27T15:50:22.279Z,98468.25
2023-01-27T15:52:54.056Z,98482.69
2023-01-27T15:55:31.579Z,98479.91
2023-01-27T15:58:31.023Z,98493.06
2023-01-27T16:01:04.535Z,98490.59
2023-01-27T16:03:39.097Z,98493.31
2023-01-27T16:06:18.497Z,98491.50
2023-01-27T16:08:55.479Z,98492.75
2023-01-27T16:11:41.185Z,98503.72
2023-01-27T16:14:46.842Z,98512.75
2023-01-27T16:17:25.030Z,98514.69
2023-01-27T16:20:25.320Z,98516.22
2023-01-27T16:23:05.213Z,98521.19
2023-01-27T16:25:45.799Z,98526.28
2023-01-27T16:28:22.912Z,98533.19
2023-01-27T16:31:08.454Z,98535.91
2023-01-27T16:33:44.393Z,98539.03
2023-01-27T16:36:26.225Z,98545.00
2023-01-27T16:39:06.939Z,98533.38
2023-01-27T16:41:42.876Z,98532.03
2023-01-27T16:44:25.467Z,98540.56
2023-01-27T16:47:14.925Z,98532.75
2023-01-27T16:49:48.969Z,98535.91
2023-01-27T16:52:35.935Z,98531.56
2023-01-27T16:55:24.682Z,98538.50
2023-01-27T16:57:58.620Z,98542.84
2023-01-27T17:00:33.170Z,98537.63
2023-01-27T17:03:08.306Z,98540.38
2023-01-27T17:05:41.019Z,98549.53
2023-01-27T17:08:27.537Z,98536.78
2023-01-27T17:11:11.131Z,98544.03
2023-01-27T17:13:48.724Z,98547.22
2023-01-27T17:16:27.613Z,98544.81
2023-01-27T17:19:00.685Z,98544.50
2023-01-27T17:21:36.373Z,98545.88
2023-01-27T17:24:17.155Z,98548.16
2023-01-27T17:27:01.491Z,98541.94
2023-01-27T17:29:38.512Z,98550.09
2023-01-27T17:32:23.472Z,98553.19
2023-01-27T17:34:57.785Z,98554.34
2023-01-27T17:37:29.275Z,98551.91
2023-01-27T17:40:02.385Z,98554.75
2023-01-27T17:42:37.432Z,98553.38
2023-01-27T17:45:30.482Z,98559.66
2023-01-27T17:48:02.561Z,98557.22
2023-01-27T17:50:40.241Z,98562.03
2023-01-27T17:53:15.480Z,98556.38
2023-01-27T17:55:45.727Z,98558.66
2023-01-27T17:58:32.909Z,98563.84
2023-01-27T18:01:03.082Z,98569.06
2023-01-27T18:03:38.298Z,98565.50
2023-01-27T18:06:14.336Z,98570.50
2023-01-27T18:08:54.274Z,98573.69
2023-01-27T18:11:31.518Z,98574.63
2023-01-27T18:14:20.024Z,98568.84
2023-01-27T18:17:04.169Z,98574.16
2023-01-27T18:19:35.505Z,98569.69
2023-01-27T18:22:15.308Z,98572.00
2023-01-27T18:24:57.840Z,98568.56
2023-01-27T18:27:34.535Z,98569.69
2023-01-27T18:30:19.495Z,98560.97
2023-01-27T18:32:54.379Z,98568.84
2023-01-27T18:35:29.161Z,98573.47
2023-01-27T18:38:02.827Z,98575.44
2023-01-27T18:40:36.620Z,98567.63
2023-01-27T18:43:08.864Z,98574.81
2023-01-27T18:45:42.405Z,98580.09
2023-01-27T18:48:16.534Z,98576.94
2023-01-27T18:50:50.610Z,98577.81
2023-01-27T18:53:23.367Z,98570.16
2023-01-27T18:55:53.772Z,98580.41
2023-01-27T18:58:24.209Z,98579.13
2023-01-27T19:01:01.197Z,98579.53
2023-01-27T19:03:34.834Z,98584.88
2023-01-27T19:06:06.196Z,98585.41
2023-01-27T19:08:39.161Z,98590.72
2023-01-27T19:11:09.738Z,98591.16
2023-01-27T19:13:39.956Z,98588.66
2023-01-27T19:16:22.005Z,98585.38
2023-01-27T19:18:52.567Z,98585.63
2023-01-27T19:21:22.762Z,98579.41
2023-01-27T19:23:55.031Z,98580.63
2023-01-27T19:26:28.385Z,98579.28
2023-01-27T19:29:59.948Z,98584.06
2023-01-27T19:32:48.242Z,98586.09
2023-01-27T19:35:19.379Z,98590.28
2023-01-27T19:37:50.526Z,98595.47
2023-01-27T19:40:35.080Z,98590.88
2023-01-27T19:43:05.850Z,98596.75
2023-01-27T19:45:36.449Z,98594.91
2023-01-27T19:48:17.058Z,98589.91
2023-01-27T19:50:48.016Z,98593.50
2023-01-27T19:53:21.672Z,98599.31
2023-01-27T19:55:58.015Z,98596.38
2023-01-27T19:58:30.857Z,98607.88
2023-01-27T20:01:02.027Z,98603.16
2023-01-27T20:03:37.876Z,98612.94
2023-01-27T20:06:19.823Z,98609.88
2023-01-27T20:08:52.150Z,98616.03
2023-01-27T20:11:37.145Z,98611.25
2023-01-27T20:14:15.136Z,98616.38
2023-01-27T20:16:46.392Z,98624.03
2023-01-27T20:19:21.749Z,98619.44
2023-01-27T20:21:54.170Z,98614.00
2023-01-27T20:24:27.624Z,98615.34
2023-01-27T20:26:58.736Z,98620.81
2023-01-27T20:29:29.327Z,98617.00
2023-01-27T20:31:59.690Z,98620.41
2023-01-27T20:34:34.201Z,98617.47
2023-01-27T20:37:05.287Z,98626.22
2023-01-27T20:39:36.742Z,98618.22
2023-01-27T20:42:07.632Z,98625.22
2023-01-27T20:44:38.104Z,98616.81
2023-01-27T20:47:08.693Z,98618.81
2023-01-27T20:49:41.877Z,98622.22
2023-01-27T20:52:13.042Z,98622.03
2023-01-27T20:54:43.287Z,98621.50
2023-01-27T20:57:13.417Z,98620.63
2023-01-27T20:59:43.586Z,98624.50
2023-01-27T21:02:14.329Z,98620.50
2023-01-27T21:04:47.155Z,98624.91
2023-01-27T21:07:18.239Z,98625.50
2023-01-27T21:09:48.613Z,98631.34
2023-01-27T21:12:19.322Z,98632.28
2023-01-27T21:14:50.232Z,98650.50
2023-01-27T21:17:20.572Z,98638.56
2023-01-27T21:19:53.873Z,98643.47
2023-01-27T21:22:24.211Z,98647.53
2023-01-27T21:24:54.308Z,98645.06
2023-01-27T21:27:24.466Z,98644.47
2023-01-27T21:29:55.094Z,98640.84
2023-01-27T21:32:25.832Z,98635.44
2023-01-27T21:34:59.963Z,98641.41
2023-01-27T21:37:30.270Z,98642.94
2023-01-27T21:40:00.787Z,98641.81
2023-01-27T21:42:43.398Z,98640.38
2023-01-27T21:45:17.247Z,98642.88
2023-01-27T21:47:47.519Z,98642.19
2023-01-27T21:50:20.766Z,98636.59
2023-01-27T21:52:53.947Z,98637.13
2023-01-27T21:55:27.154Z,98632.66
2023-01-27T21:57:59.695Z,98629.06
2023-01-27T22:00:32.275Z,98632.69
2023-01-27T22:03:05.188Z,98627.25
2023-01-27T22:05:40.424Z,98624.94
2023-01-27T22:08:10.573Z,98622.88
2023-01-27T22:10:40.957Z,98622.22
2023-01-27T22:13:12.494Z,98625.84
2023-01-27T22:15:42.679Z,98632.72
2023-01-27T22:18:13.492Z,98625.94
2023-01-27T22:20:46.276Z,98619.78
2023-01-27T22:23:16.499Z,98622.72
2023-01-27T22:25:51.640Z,98623.22
2023-01-27T22:28:23.130Z,98623.09
2023-01-27T22:30:54.147Z,98621.16
2023-01-27T22:33:25.099Z,98628.03
2023-01-27T22:36:05.802Z,98626.59
2023-01-27T22:38:41.185Z,98620.56
2023-01-27T22:41:11.538Z,98623.59
2023-01-27T22:43:41.756Z,98624.47
2023-01-27T22:46:12.004Z,98623.59
2023-01-27T22:48:42.231Z,98629.34
2023-01-27T22:51:15.431Z,98629.00
2023-01-27T22:53:46.403Z,98634.16
2023-01-27T22:56:16.639Z,98631.47
2023-01-27T22:58:46.819Z,98625.34
2023-01-27T23:01:17.691Z,98628.13
2023-01-27T23:03:47.909Z,98622.38
2023-01-27T23:06:21.240Z,98633.72
2023-01-27T23:08:51.355Z,98625.34
2023-01-27T23:11:21.599Z,98639.16
2023-01-27T23:13:51.739Z,98640.13
2023-01-27T23:16:23.520Z,98634.19
2023-01-27T23:18:53.870Z,98636.50
2023-01-27T23:21:26.656Z,98636.13
2023-01-27T23:23:57.232Z,98632.25
2023-01-27T23:26:27.460Z,98632.56
2023-01-27T23:28:57.637Z,98626.53
2023-01-27T23:31:28.354Z,98627.97
2023-01-27T23:33:58.561Z,98633.03
2023-01-27T23:36:31.445Z,98628.06
2023-01-27T23:39:01.945Z,98628.34
2023-01-27T23:41:32.525Z,98624.81
2023-01-27T23:44:02.910Z,98614.59
2023-01-27T23:46:33.083Z,98624.03
2023-01-27T23:49:03.286Z,98625.13
2023-01-27T23:51:36.202Z,98627.78
2023-01-27T23:54:07.012Z,98631.56
2023-01-27T23:56:37.276Z,98642.16
2023-01-27T23:59:07.387Z,98641.94
